createdAt,value
2022-11-05T00:00:21.631Z,96772.03
2022-11-05T00:03:35.057Z,96749.13
2022-11-05T00:06:21.679Z,96745.75
2022-11-05T00:10:12.104Z,96749.25
2022-11-05T00:16:12.039Z,96745.47
2022-11-05T00:18:41.444Z,96740.50
2022-11-05T00:21:31.335Z,96748.25
2022-11-05T00:24:23.190Z,96751.72
2022-11-05T00:31:05.661Z,96769.88
2022-11-05T00:33:34.945Z,96767.22
2022-11-05T00:36:09.754Z,96787.53
2022-11-05T00:38:38.847Z,96783.34
2022-11-05T00:41:10.941Z,96791.91
2022-11-05T00:43:57.398Z,96809.09
2022-11-05T00:46:28.140Z,96814.44
2022-11-05T00:49:14.717Z,96812.66
2022-11-05T00:51:44.201Z,96804.75
2022-11-05T00:54:13.780Z,96781.41
2022-11-05T00:56:43.360Z,96775.53
2022-11-05T00:59:13.255Z,96783.69
2022-11-05T01:01:45.087Z,96785.00
2022-11-05T01:04:14.553Z,96800.31
2022-11-05T01:06:44.172Z,96820.31
2022-11-05T01:09:13.364Z,96809.84
2022-11-05T01:11:43.107Z,96811.44
2022-11-05T01:14:14.287Z,96825.03
2022-11-05T01:16:45.815Z,96820.06
2022-11-05T01:19:15.288Z,96832.19
2022-11-05T01:21:44.498Z,96833.03
2022-11-05T01:24:14.198Z,96832.22
2022-11-05T01:26:43.541Z,96813.34
2022-11-05T01:29:13.256Z,96816.53
2022-11-05T01:31:42.816Z,96812.81
2022-11-05T01:34:14.530Z,96806.97
2022-11-05T01:41:17.943Z,96824.16
2022-11-05T01:44:29.435Z,96806.69
2022-11-05T01:46:58.722Z,96813.78
2022-11-05T01:49:30.505Z,96823.34
2022-11-05T01:52:30.990Z,96819.91
2022-11-05T01:55:00.772Z,96820.88
2022-11-05T01:57:31.451Z,96818.91
2022-11-05T02:00:01.414Z,96816.81
2022-11-05T02:02:30.864Z,96814.72
2022-11-05T02:05:03.548Z,96811.09
2022-11-05T02:07:33.057Z,96816.13
2022-11-05T02:10:05.251Z,96814.59
2022-11-05T02:12:35.323Z,96809.56
2022-11-05T02:15:04.726Z,96815.97
2022-11-05T02:18:03.486Z,96835.06
2022-11-05T02:20:42.243Z,96835.97
2022-11-05T02:28:03.761Z,96822.69
2022-11-05T02:31:18.269Z,96821.97
2022-11-05T02:33:57.196Z,96821.91
2022-11-05T02:36:34.742Z,96825.38
2022-11-05T02:39:12.513Z,96832.78
2022-11-05T02:41:47.389Z,96833.53
2022-11-05T02:53:43.059Z,96830.06
2022-11-05T02:56:18.398Z,96826.81
2022-11-05T02:58:48.281Z,96834.38
2022-11-05T03:01:17.725Z,96831.84
2022-11-05T03:03:49.747Z,96837.94
2022-11-05T03:06:39.724Z,96826.03
2022-11-05T03:09:22.087Z,96828.06
2022-11-05T03:11:58.148Z,96831.38
2022-11-05T03:19:26.397Z,96826.66
2022-11-05T03:21:58.432Z,96828.50
2022-11-05T03:24:31.460Z,96831.06
2022-11-05T03:27:04.056Z,96828.31
2022-11-05T03:29:36.227Z,96821.59
2022-11-05T03:32:06.749Z,96834.59
2022-11-05T03:34:38.506Z,96830.25
2022-11-05T03:37:07.952Z,96819.91
2022-11-05T03:39:40.619Z,96820.69
2022-11-05T03:42:12.224Z,96816.38
2022-11-05T03:44:44.673Z,96811.91
2022-11-05T03:47:16.915Z,96814.56
2022-11-05T03:49:54.194Z,96820.69
2022-11-05T03:52:26.709Z,96839.53
2022-11-05T03:54:57.924Z,96851.81
2022-11-05T03:57:30.895Z,96862.09
2022-11-05T04:00:00.211Z,96856.69
2022-11-05T04:02:30.274Z,96853.19
2022-11-05T04:04:59.514Z,96848.91
2022-11-05T04:11:54.344Z,96863.19
2022-11-05T04:14:23.499Z,96872.34
2022-11-05T04:17:13.015Z,96875.72
2022-11-05T04:26:57.086Z,96883.56
2022-11-05T04:29:43.645Z,96886.72
2022-11-05T04:32:12.624Z,96890.44
2022-11-05T04:34:41.583Z,96893.72
2022-11-05T04:37:10.993Z,96893.47
2022-11-05T04:39:40.311Z,96894.50
2022-11-05T04:42:10.742Z,96895.53
2022-11-05T04:44:40.145Z,96896.06
2022-11-05T04:47:09.166Z,96903.16
2022-11-05T04:49:38.271Z,96906.81
2022-11-05T04:52:07.728Z,96904.34
2022-11-05T04:54:36.923Z,96910.97
2022-11-05T04:57:06.360Z,96920.47
2022-11-05T04:59:36.921Z,96928.88
2022-11-05T05:02:06.933Z,96939.94
2022-11-05T05:04:38.900Z,96945.31
2022-11-05T05:07:08.251Z,96945.31
2022-11-05T05:10:33.547Z,96948.88
2022-11-05T05:13:02.757Z,96961.91
2022-11-05T05:15:33.644Z,96958.13
2022-11-05T05:18:03.299Z,96953.00
2022-11-05T05:20:49.637Z,96950.72
2022-11-05T05:23:18.774Z,96951.31
2022-11-05T05:25:47.735Z,96958.34
2022-11-05T05:28:17.222Z,96967.94
2022-11-05T05:30:47.980Z,96970.34
2022-11-05T05:33:17.160Z,96977.31
2022-11-05T05:35:46.326Z,96986.66
2022-11-05T05:38:15.556Z,96984.00
2022-11-05T05:41:10.789Z,96991.72
2022-11-05T05:43:40.467Z,96981.44
2022-11-05T05:46:12.971Z,96992.75
2022-11-05T05:48:42.103Z,96996.25
2022-11-05T05:51:12.872Z,97000.44
2022-11-05T05:53:42.113Z,97001.47
2022-11-05T05:56:15.111Z,96996.22
2022-11-05T05:58:44.449Z,96994.72
2022-11-05T06:01:19.189Z,96991.91
2022-11-05T06:03:49.686Z,96987.69
2022-11-05T06:06:21.274Z,96985.16
2022-11-05T06:08:50.731Z,96980.16
2022-11-05T06:11:19.635Z,96987.06
2022-11-05T06:13:48.416Z,96998.97
2022-11-05T06:16:20.408Z,97001.78
2022-11-05T06:24:23.791Z,97006.00
2022-11-05T06:27:43.904Z,97010.22
2022-11-05T06:30:13.470Z,97015.38
2022-11-05T06:32:45.134Z,97026.47
2022-11-05T06:35:14.389Z,97018.63
2022-11-05T06:37:45.318Z,97024.63
2022-11-05T06:40:17.492Z,97022.00
2022-11-05T06:42:48.342Z,97029.75
2022-11-05T06:45:18.382Z,97034.09
2022-11-05T06:47:57.181Z,97033.16
2022-11-05T07:00:56.110Z,97066.25
2022-11-05T07:07:56.917Z,97070.59
2022-11-05T07:10:25.536Z,97072.22
2022-11-05T07:12:55.156Z,97078.25
2022-11-05T07:15:23.874Z,97077.38
2022-11-05T07:17:52.751Z,97075.53
2022-11-05T07:20:21.687Z,97078.66
2022-11-05T07:22:53.037Z,97072.72
2022-11-05T07:25:23.079Z,97070.09
2022-11-05T07:27:52.946Z,97077.69
2022-11-05T07:30:22.278Z,97071.59
2022-11-05T07:33:17.182Z,97068.91
2022-11-05T07:35:47.776Z,97070.28
2022-11-05T08:13:02.859Z,97083.81
2022-11-05T08:44:29.517Z,97085.78
2022-11-05T08:47:00.992Z,97073.25
2022-11-05T08:49:30.217Z,97083.81
2022-11-05T08:51:59.005Z,97080.59
2022-11-05T08:54:27.756Z,97071.31
2022-11-05T08:56:57.098Z,97076.69
2022-11-05T08:59:27.420Z,97069.09
2022-11-05T09:01:58.470Z,97073.19
2022-11-05T09:04:31.447Z,97069.34
2022-11-05T09:07:06.572Z,97069.56
2022-11-05T09:09:40.264Z,97082.00
2022-11-05T09:12:18.854Z,97095.91
2022-11-05T09:22:04.932Z,97097.41
2022-11-05T09:24:36.499Z,97095.84
2022-11-05T09:27:05.275Z,97098.91
2022-11-05T09:29:33.550Z,97097.66
2022-11-05T09:32:01.840Z,97117.59
2022-11-05T09:34:30.306Z,97111.34
2022-11-05T09:36:59.021Z,97117.78
2022-11-05T09:39:28.737Z,97122.25
2022-11-05T09:42:01.597Z,97117.13
2022-11-05T09:44:35.035Z,97120.78
2022-11-05T09:47:06.294Z,97127.03
2022-11-05T09:49:40.110Z,97112.22
2022-11-05T09:53:03.521Z,97103.53
2022-11-05T09:55:35.577Z,97101.34
2022-11-05T09:58:06.320Z,97107.72
2022-11-05T10:00:35.486Z,97110.97
2022-11-05T10:03:06.575Z,97108.19
2022-11-05T10:05:36.635Z,97119.78
2022-11-05T10:08:17.076Z,97119.81
2022-11-05T10:10:49.989Z,97114.88
2022-11-05T10:13:24.806Z,97120.31
2022-11-05T10:15:59.530Z,97121.22
2022-11-05T10:18:32.018Z,97116.44
2022-11-05T10:21:00.632Z,97124.66
2022-11-05T10:23:30.744Z,97133.56
2022-11-05T10:26:03.149Z,97134.00
2022-11-05T10:28:35.516Z,97125.41
2022-11-05T10:31:07.579Z,97120.78
2022-11-05T10:33:42.744Z,97123.31
2022-11-05T10:36:15.454Z,97126.81
2022-11-05T10:45:27.241Z,97126.03
2022-11-05T10:48:05.926Z,97131.94
2022-11-05T10:50:34.297Z,97134.34
2022-11-05T10:53:04.894Z,97140.81
2022-11-05T10:55:36.018Z,97137.13
2022-11-05T10:58:12.935Z,97136.34
2022-11-05T11:00:44.164Z,97134.97
2022-11-05T11:03:32.269Z,97131.53
2022-11-05T11:06:01.598Z,97148.50
2022-11-05T11:08:29.954Z,97145.25
2022-11-05T11:11:00.834Z,97156.88
2022-11-05T11:13:30.804Z,97146.31
2022-11-05T11:16:16.400Z,97154.19
2022-11-05T11:18:45.147Z,97152.78
2022-11-05T11:21:15.359Z,97158.41
2022-11-05T11:23:45.072Z,97154.88
2022-11-05T11:26:14.621Z,97152.19
2022-11-05T11:28:47.540Z,97150.28
2022-11-05T11:53:42.404Z,97174.97
2022-11-05T11:56:19.971Z,97171.50
2022-11-05T11:58:49.851Z,97182.50
2022-11-05T12:01:43.425Z,97171.97
2022-11-05T12:04:22.755Z,97164.88
2022-11-05T12:06:58.379Z,97167.78
2022-11-05T12:09:33.799Z,97165.94
2022-11-05T12:12:06.042Z,97167.69
2022-11-05T12:14:43.683Z,97155.44
2022-11-05T12:17:36.778Z,97164.34
2022-11-05T12:20:18.351Z,97160.75
2022-11-05T12:23:15.170Z,97159.66
2022-11-05T12:25:48.456Z,97154.81
2022-11-05T12:28:36.244Z,97151.41
2022-11-05T12:31:11.466Z,97151.03
2022-11-05T12:33:45.480Z,97141.63
2022-11-05T12:36:22.510Z,97141.28
2022-11-05T12:39:23.805Z,97162.66
2022-11-05T12:41:57.748Z,97155.00
2022-11-05T12:44:48.582Z,97164.34
2022-11-05T12:47:33.751Z,97160.84
2022-11-05T12:50:12.335Z,97164.63
2022-11-05T12:53:11.612Z,97171.00
2022-11-05T12:55:47.151Z,97163.69
2022-11-05T12:58:22.143Z,97188.63
2022-11-05T13:00:54.461Z,97191.28
2022-11-05T13:03:28.787Z,97198.44
2022-11-05T13:06:05.899Z,97186.84
2022-11-05T13:08:39.925Z,97192.63
2022-11-05T13:11:15.975Z,97198.38
2022-11-05T13:13:49.706Z,97204.69
2022-11-05T13:16:24.762Z,97198.31
2022-11-05T13:18:56.021Z,97211.47
2022-11-05T13:21:29.175Z,97215.47
2022-11-05T13:24:02.960Z,97216.94
2022-11-05T13:26:36.942Z,97228.25
2022-11-05T13:29:10.151Z,97220.22
2022-11-05T13:31:41.772Z,97225.97
2022-11-05T13:34:12.969Z,97220.25
2022-11-05T13:37:06.888Z,97227.31
2022-11-05T13:39:38.340Z,97230.13
2022-11-05T13:42:44.648Z,97231.06
2022-11-05T13:45:49.937Z,97237.66
2022-11-05T13:48:59.499Z,97231.22
2022-11-05T13:51:49.309Z,97241.13
2022-11-05T13:54:51.631Z,97222.56
2022-11-05T13:57:39.198Z,97241.69
2022-11-05T14:00:13.464Z,97230.84
2022-11-05T14:02:46.071Z,97240.72
2022-11-05T14:05:26.431Z,97233.19
2022-11-05T14:08:35.367Z,97237.53
2022-11-05T14:15:54.035Z,97231.75
2022-11-05T14:18:45.923Z,97242.78
2022-11-05T14:24:43.237Z,97241.69
2022-11-05T14:27:43.761Z,97241.03
2022-11-05T14:34:57.106Z,97247.84
2022-11-05T14:37:29.684Z,97263.16
2022-11-05T14:40:19.460Z,97270.00
2022-11-05T14:47:34.292Z,97277.16
2022-11-05T14:54:01.709Z,97281.63
2022-11-05T14:56:56.651Z,97280.94
2022-11-05T15:04:53.973Z,97287.97
2022-11-05T15:07:43.375Z,97291.47
2022-11-05T15:10:16.217Z,97303.69
2022-11-05T15:13:09.258Z,97301.56
2022-11-05T15:18:58.473Z,97299.59
2022-11-05T15:21:29.856Z,97310.34
2022-11-05T15:23:59.407Z,97306.94
2022-11-05T15:26:31.938Z,97307.50
2022-11-05T15:29:02.708Z,97295.66
2022-11-05T15:31:35.869Z,97303.28
2022-11-05T15:35:17.985Z,97303.25
2022-11-05T15:37:53.594Z,97309.72
2022-11-05T15:40:29.092Z,97307.06
2022-11-05T15:43:21.146Z,97307.97
2022-11-05T15:50:15.007Z,97302.84
2022-11-05T16:37:12.097Z,97365.47
2022-11-05T16:39:44.536Z,97376.50
2022-11-05T16:42:42.142Z,97369.53
2022-11-05T16:45:16.356Z,97382.63
2022-11-05T16:47:47.203Z,97380.88
2022-11-05T16:54:25.579Z,97405.91
2022-11-05T16:56:59.394Z,97405.81
2022-11-05T16:59:31.362Z,97412.91
2022-11-05T17:02:02.025Z,97419.69
2022-11-05T17:04:35.095Z,97422.56
2022-11-05T17:07:07.739Z,97419.09
2022-11-05T17:09:41.212Z,97413.09
2022-11-05T17:12:15.081Z,97420.69
2022-11-05T17:14:47.121Z,97418.88
2022-11-05T17:17:18.115Z,97419.09
2022-11-05T17:19:51.109Z,97426.06
2022-11-05T17:22:26.396Z,97436.41
2022-11-05T17:25:00.056Z,97431.97
2022-11-05T17:27:33.712Z,97425.94
2022-11-05T17:30:04.513Z,97424.31
2022-11-05T17:32:39.375Z,97432.03
2022-11-05T17:35:19.855Z,97424.19
2022-11-05T17:37:54.558Z,97431.91
2022-11-05T17:44:19.025Z,97439.91
2022-11-05T17:46:50.196Z,97446.72
2022-11-05T17:49:21.343Z,97456.25
2022-11-05T17:51:53.852Z,97458.88
2022-11-05T17:54:24.469Z,97455.47
2022-11-05T17:57:00.330Z,97461.47
2022-11-05T17:59:32.631Z,97452.91
2022-11-05T18:02:03.645Z,97458.78
2022-11-05T18:04:34.221Z,97468.38
2022-11-05T18:07:04.407Z,97460.63
2022-11-05T18:09:34.708Z,97458.81
2022-11-05T18:12:06.374Z,97464.91
2022-11-05T18:14:38.974Z,97468.31
2022-11-05T18:17:10.234Z,97465.78
2022-11-05T18:19:41.094Z,97470.97
2022-11-05T18:22:12.252Z,97467.50
2022-11-05T18:24:42.705Z,97469.22
2022-11-05T18:27:13.413Z,97469.25
2022-11-05T18:29:46.604Z,97482.16
2022-11-05T18:32:20.407Z,97476.16
2022-11-05T18:35:17.304Z,97476.13
2022-11-05T18:37:47.337Z,97489.97
2022-11-05T18:40:17.796Z,97489.97
2022-11-05T18:42:49.564Z,97486.50
2022-11-05T18:45:23.328Z,97494.22
2022-11-05T18:47:59.490Z,97496.81
2022-11-05T18:50:33.251Z,97495.94
2022-11-05T18:53:04.161Z,97501.19
2022-11-05T18:55:34.714Z,97500.34
2022-11-05T18:58:08.654Z,97499.47
2022-11-05T19:00:42.859Z,97502.03
2022-11-05T19:03:13.877Z,97516.66
2022-11-05T19:05:43.973Z,97520.06
2022-11-05T19:08:16.363Z,97521.63
2022-11-05T19:11:13.418Z,97517.22
2022-11-05T19:13:44.099Z,97527.41
2022-11-05T19:16:19.273Z,97530.81
2022-11-05T19:19:39.720Z,97544.34
2022-11-05T19:26:41.955Z,97554.50
2022-11-05T19:29:13.502Z,97553.50
2022-11-05T19:31:45.118Z,97561.97
2022-11-05T19:34:15.530Z,97568.94
2022-11-05T19:36:46.786Z,97567.97
2022-11-05T19:39:20.020Z,97569.47
2022-11-05T19:41:57.636Z,97576.06
2022-11-05T19:44:36.381Z,97573.38
2022-11-05T19:47:09.882Z,97577.53
2022-11-05T19:49:40.904Z,97580.00
2022-11-05T19:52:10.907Z,97589.34
2022-11-05T19:54:41.730Z,97580.88
2022-11-05T19:57:13.798Z,97588.63
2022-11-05T19:59:45.390Z,97588.53
2022-11-05T20:02:17.468Z,97593.88
2022-11-05T20:04:49.964Z,97596.34
2022-11-05T20:07:21.834Z,97594.66
2022-11-05T20:09:52.853Z,97584.38
2022-11-05T20:12:26.602Z,97579.63
2022-11-05T20:15:48.929Z,97589.56
2022-11-05T20:18:21.026Z,97589.91
2022-11-05T20:20:51.886Z,97592.63
2022-11-05T20:23:23.005Z,97591.81
2022-11-05T20:27:13.456Z,97590.97
2022-11-05T20:29:46.642Z,97600.94
2022-11-05T20:32:17.471Z,97598.59
2022-11-05T20:39:22.019Z,97611.91
2022-11-05T20:41:57.237Z,97604.75
2022-11-05T20:44:27.461Z,97616.94
2022-11-05T20:46:57.466Z,97624.69
2022-11-05T20:49:30.237Z,97612.91
2022-11-05T20:52:00.868Z,97615.19
2022-11-05T20:54:33.514Z,97616.00
2022-11-05T20:57:06.121Z,97615.41
2022-11-05T20:59:38.358Z,97612.28
2022-11-05T21:02:07.951Z,97609.94
2022-11-05T21:04:38.589Z,97613.13
2022-11-05T21:07:10.146Z,97617.59
2022-11-05T21:10:08.862Z,97611.81
2022-11-05T21:12:38.595Z,97620.66
2022-11-05T21:15:10.647Z,97600.91
2022-11-05T21:17:46.111Z,97605.94
2022-11-05T21:20:16.161Z,97599.78
2022-11-05T21:22:45.992Z,97604.78
2022-11-05T21:25:19.176Z,97604.66
2022-11-05T21:27:48.632Z,97601.88
2022-11-05T21:34:38.969Z,97613.09
2022-11-05T21:37:09.830Z,97608.38
2022-11-05T21:40:29.490Z,97606.50
2022-11-05T21:47:35.383Z,97605.94
2022-11-05T21:58:46.207Z,97609.13
2022-11-05T22:01:15.271Z,97625.00
2022-11-05T22:03:51.073Z,97613.22
2022-11-05T22:07:35.591Z,97616.38
2022-11-05T22:10:06.085Z,97612.31
2022-11-05T22:12:45.395Z,97614.44
2022-11-05T22:24:30.700Z,97611.59
2022-11-05T22:26:59.710Z,97607.13
2022-11-05T22:29:29.744Z,97607.34
2022-11-05T22:32:00.092Z,97606.13
2022-11-05T22:34:29.676Z,97612.84
2022-11-05T22:37:01.898Z,97611.91
2022-11-05T22:39:32.997Z,97607.28
2022-11-05T22:42:07.230Z,97608.56
2022-11-05T22:45:23.140Z,97606.69
2022-11-05T22:47:52.914Z,97604.81
2022-11-05T22:50:28.254Z,97591.59
2022-11-05T22:52:57.781Z,97596.88
2022-11-05T22:55:46.211Z,97599.69
2022-11-05T22:58:18.950Z,97599.53
2022-11-05T23:00:48.270Z,97601.38
2022-11-05T23:03:18.546Z,97590.59
2022-11-05T23:06:39.279Z,97594.81
2022-11-05T23:09:29.600Z,97603.19
2022-11-05T23:12:32.697Z,97607.13
2022-11-05T23:19:54.646Z,97601.81
2022-11-05T23:22:44.572Z,97606.88
2022-11-05T23:25:17.211Z,97609.31
2022-11-05T23:27:48.632Z,97601.53
2022-11-05T23:30:20.953Z,97595.03
2022-11-05T23:32:51.378Z,97607.44
2022-11-05T23:35:46.324Z,97610.22
2022-11-05T23:38:36.083Z,97605.22
2022-11-05T23:41:23.009Z,97600.59
2022-11-05T23:44:10.468Z,97605.03
2022-11-05T23:47:02.895Z,97614.81
2022-11-05T23:49:34.151Z,97613.84
2022-11-05T23:52:04.940Z,97624.19
2022-11-05T23:54:36.612Z,97609.75
2022-11-05T23:57:57.475Z,97609.47
